x

Tanner Bank - 121nm West Of San Diego, Ca (46047) Wave Buoy

6:50 - Wed 24th Aug 2016 All times are PDT. -7 hours from GMT.

  • Sig Wave height 6.2ft
  • Swell Direction
  • Peak Period 7s
  • Average Period 5s
  • Wind
    22mph, 27mph gusts
  • Sea Temp 64°f
  • Ar Temp 62°f
  • Sea Pressure 1014.9mb
  • Tanner Bank - 121nm West Of San Diego, Ca
  • Tanner Bank - 121nm West Of San Diego, Ca

More Historic Weather Station data

Upgrade to MSW Pro to gain access to the past 30 days of data for over 8000 Wavebouys and Weather Stations around the globe.

Join Pro

Comparision Forecast

View Surf forecast
   
Qua 08/24 6:50 6ft 7s 5s 22 27 mph 1014.9mb 64f 62f
5:50 6ft 7s 5s 20 25 mph 1015mb 64f 63f
4:50 6ft 7s 5s 20 25 mph 1015.3mb 64f 63f
3:50 6ft 7s 6s 20 25 mph 1015.8mb 64f 63f
2:50 6ft 8s 5s 20 25 mph 1016.4mb 64f 63f
1:50 6ft 7s 5s 20 25 mph 1017mb 64f 64f
12:50 5.5ft 8s 5s 22 27 mph 1017.3mb 64f 63f
11:50 6ft 7s 5s 20 25 mph 1017.8mb 64f 63f
10:50 6ft 7s 5s 22 25 mph 1018mb 64f 63f
9:50 5ft 6s 5s 22 25 mph 1018mb 64f 63f
8:50 5.5ft 7s 5s 20 25 mph 1017.9mb 64f 63f
7:50 5.5ft 7s 5s 20 25 mph 1017.7mb 64f 63f
6:50 5.5ft 7s 6s 20 22 mph 1017.4mb 64f 63f
5:50 5.5ft 7s 5s 20 22 mph 1016.9mb 64f 63f
4:50 5.5ft 6s 6s 20 22 mph 1016.7mb 64f 62f
3:50 6ft 7s 6s 20 25 mph 1016.7mb 64f 63f
2:50 5.5ft 7s 6s 18 22 mph 1017mb 64f 62f
1:50 6ft 7s 5s 20 22 mph 1017.2mb 64f 62f
12:50 5ft 7s 5s 20 22 mph 1017.4mb 64f 62f
Ter 08/23 11:50 5ft 6s 5s 20 22 mph 1017.7mb 64f 63f
10:50 4.5ft 6s 5s 20 22 mph 1018mb 65f 64f
9:50 4.5ft 6s 5s 18 22 mph 1018mb 65f 64f
8:50 5ft 6s 5s 18 22 mph 1017.4mb 65f 64f
7:50 5ft 6s 5s 18 22 mph 1016.9mb 65f 64f
6:50 5ft 6s 5s 18 20 mph 1016.6mb 65f 64f
5:50 5ft 7s 5s 20 25 mph 1016.5mb 65f 64f
4:50 5.5ft 6s 5s 20 22 mph 1016.8mb 65f 64f
3:50 5ft 6s 5s 18 22 mph 1017.1mb 65f 64f
2:50 4.5ft 13s 5s 18 22 mph 1017.5mb 65f 64f
1:50 5ft 5s 5s 18 20 mph 1018.1mb 64f 64f
12:50 4.5ft 6s 5s 18 22 mph 1018.1mb 64f 64f
11:50 4.5ft 13s 5s 18 20 mph 1018.1mb 64f 64f
10:50 4.5ft 14s 5s 16 18 mph 1018.1mb 64f 64f
9:50 4ft 14s 5s 16 20 mph 1017.8mb 64f 63f
8:50 4.5ft 13s 6s 13 18 mph 1017.4mb 64f 63f
7:50 4.5ft 14s 6s 13 16 mph 1016.9mb 64f 63f
6:50 4.5ft 7s 6s 11 16 mph 1016.5mb 64f 63f
5:50 5ft 7s 6s 13 16 mph 1015.4mb 64f 63f
4:50 5ft 7s 6s 11 16 mph 1014.8mb 64f 63f
3:50 5ft 6s 6s 9 11 mph 1015mb 64f 64f
2:50 5ft 6s 6s 11 16 mph 1014.9mb 64f 64f
1:50 5ft 13s 6s 13 16 mph 1014.9mb 64f 63f
12:50 5ft 14s 5s 13 16 mph 1014.8mb 64f 64f
Seg 08/22 11:50 5ft 14s 5s 16 20 mph 1014.5mb 64f 64f
10:50 4.5ft 14s 5s 18 20 mph 1014.6mb 64f 64f
9:50 4.5ft 15s 5s 18 22 mph 1014.3mb 64f 64f
8:50 4.5ft 15s 5s 20 22 mph 1013.8mb 64f 64f
7:50 4.5ft 15s 5s 20 25 mph 1013.4mb 65f 64f
6:50 4.5ft 14s 5s 18 22 mph 1013.4mb 65f 64f
5:50 4.5ft 14s 5s 20 22 mph 1013.6mb 65f 64f
4:50 5ft 15s 6s 18 20 mph 1013.8mb 65f 64f
3:50 5ft 14s 6s 16 20 mph 1014.1mb 64f 64f
2:50 5ft 15s 6s 16 18 mph 1014.3mb 64f 64f
1:50 5ft 14s 6s 16 18 mph 1014.5mb 64f 64f
12:50 5ft 15s 6s 13 16 mph 1014.7mb 64f 64f
11:50 5ft 15s 6s 11 13 mph 1014.9mb 64f 63f
10:50 5ft 15s 6s 11 16 mph 1014.9mb 64f 63f
9:50 5ft 15s 6s 11 13 mph 1014.7mb 64f 63f
8:50 5ft 15s 6s 13 18 mph 1014.5mb 64f 62f
7:50 5ft 16s 6s 16 18 mph 1013.8mb 64f 62f
6:50 6ft 15s 7s 16 20 mph 1013.4mb 64f 63f
5:50 5ft 15s 6s 16 18 mph 1013.1mb 64f 63f
4:50 5.5ft 15s 6s 16 18 mph 1012.9mb 64f 63f
3:50 5ft 15s 6s 16 20 mph 1012.7mb 64f 62f
2:50 5.5ft 16s 6s 16 20 mph 1012.5mb 64f 62f
1:50 5.5ft 15s 6s 16 20 mph 1012.7mb 65f 63f
12:50 5ft 16s 6s 18 20 mph 1012.8mb 65f 63f
Dom 08/21 11:50 5.5ft 14s 6s 18 25 mph 1012.9mb 65f 63f
10:50 5ft 15s 6s 18 22 mph 1012.8mb 65f 63f
9:50 4.5ft 16s 5s 18 20 mph 1012.8mb 65f 63f
7:50 5ft 16s 6s 20 22 mph 1012mb 65f 64f
6:50 5ft 16s 6s 20 25 mph 1011.9mb 65f 64f
5:50 5ft 15s 6s 18 20 mph 1012.1mb 65f 64f
4:50 5ft 11s 6s 16 20 mph 1012.1mb 65f 64f
3:50 5.5ft 14s 7s 16 18 mph 1012.7mb 65f 64f
2:50 5ft 11s 7s 13 18 mph 1013.5mb 65f 64f
1:50 5ft 12s 7s 13 18 mph 1014.1mb 65f 63f
12:50 5ft 14s 7s 13 16 mph 1014.1mb 65f 64f
11:50 4.5ft 14s 6s 11 13 mph 1014.6mb 65f 64f
10:50 4.5ft 14s 6s 13 16 mph 1014.7mb 65f 64f
9:50 4.5ft 14s 6s 13 18 mph 1014.3mb 64f 63f
8:50 4.5ft 14s 7s 16 18 mph 1013.9mb 64f 63f
7:50 4.5ft 16s 6s 13 18 mph 1013.8mb 64f 63f
6:50 5ft 13s 6s 13 16 mph 1013.5mb 64f 63f
5:50 5ft 14s 6s 16 20 mph 1013.1mb 64f 62f
4:50 5ft 14s 6s 16 18 mph 1012.8mb 64f 63f
3:50 5ft 10s 6s 16 20 mph 1012.6mb 64f 63f
2:50 5ft 15s 6s 16 18 mph 1012.2mb 65f 63f